sensor_id;sensor_type;location;lat;lon;timestamp;P1;durP1;ratioP1;P2;durP2;ratioP2
55487;SDS011;41352;53.158;6.788;2022-09-09T00:01:22;8.07;;;7.22;;
55487;SDS011;41352;53.158;6.788;2022-09-09T00:06:54;9.98;;;7.65;;
55487;SDS011;41352;53.158;6.788;2022-09-09T00:09:46;14.80;;;7.53;;
55487;SDS011;41352;53.158;6.788;2022-09-09T00:12:53;12.65;;;7.75;;
55487;SDS011;41352;53.158;6.788;2022-09-09T00:16:16;11.45;;;6.47;;
55487;SDS011;41352;53.158;6.788;2022-09-09T00:21:16;10.63;;;7.68;;
55487;SDS011;41352;53.158;6.788;2022-09-09T00:31:37;8.48;;;6.35;;
55487;SDS011;41352;53.158;6.788;2022-09-09T00:34:11;11.85;;;6.70;;
55487;SDS011;41352;53.158;6.788;2022-09-09T00:36:39;10.32;;;6.32;;
55487;SDS011;41352;53.158;6.788;2022-09-09T00:39:08;12.48;;;7.63;;
55487;SDS011;41352;53.158;6.788;2022-09-09T00:41:50;9.45;;;7.22;;
55487;SDS011;41352;53.158;6.788;2022-09-09T00:44:34;9.70;;;6.20;;
55487;SDS011;41352;53.158;6.788;2022-09-09T00:47:16;11.55;;;6.68;;
55487;SDS011;41352;53.158;6.788;2022-09-09T00:52:21;10.75;;;7.28;;
55487;SDS011;41352;53.158;6.788;2022-09-09T00:57:43;8.32;;;6.20;;
55487;SDS011;41352;53.158;6.788;2022-09-09T01:00:21;10.82;;;7.32;;
55487;SDS011;41352;53.158;6.788;2022-09-09T01:02:54;9.30;;;7.13;;
55487;SDS011;41352;53.158;6.788;2022-09-09T01:08:30;11.77;;;6.70;;
55487;SDS011;41352;53.158;6.788;2022-09-09T01:16:59;12.25;;;7.60;;
55487;SDS011;41352;53.158;6.788;2022-09-09T01:24:47;8.93;;;7.35;;
55487;SDS011;41352;53.158;6.788;2022-09-09T01:27:30;8.48;;;6.18;;
55487;SDS011;41352;53.158;6.788;2022-09-09T01:29:57;9.00;;;6.65;;
55487;SDS011;41352;53.158;6.788;2022-09-09T01:35:31;9.07;;;6.85;;
55487;SDS011;41352;53.158;6.788;2022-09-09T01:38:30;8.20;;;5.93;;
55487;SDS011;41352;53.158;6.788;2022-09-09T01:40:58;9.07;;;5.93;;
55487;SDS011;41352;53.158;6.788;2022-09-09T01:43:24;9.20;;;5.63;;
55487;SDS011;41352;53.158;6.788;2022-09-09T01:45:52;9.52;;;6.22;;
55487;SDS011;41352;53.158;6.788;2022-09-09T01:48:19;7.60;;;6.18;;
55487;SDS011;41352;53.158;6.788;2022-09-09T01:50:47;10.82;;;6.13;;
55487;SDS011;41352;53.158;6.788;2022-09-09T01:53:13;11.65;;;7.88;;
55487;SDS011;41352;53.158;6.788;2022-09-09T01:55:44;10.52;;;6.78;;
55487;SDS011;41352;53.158;6.788;2022-09-09T02:01:02;10.95;;;7.35;;
55487;SDS011;41352;53.158;6.788;2022-09-09T02:03:44;13.18;;;7.68;;
55487;SDS011;41352;53.158;6.788;2022-09-09T02:06:22;12.38;;;7.10;;
55487;SDS011;41352;53.158;6.788;2022-09-09T02:08:52;12.48;;;6.78;;
55487;SDS011;41352;53.158;6.788;2022-09-09T02:11:24;9.25;;;6.95;;
55487;SDS011;41352;53.158;6.788;2022-09-09T02:14:02;11.98;;;7.13;;
55487;SDS011;41352;53.158;6.788;2022-09-09T02:16:53;8.50;;;6.85;;
55487;SDS011;41352;53.158;6.788;2022-09-09T02:21:53;16.00;;;6.90;;
55487;SDS011;41352;53.158;6.788;2022-09-09T02:24:21;8.18;;;5.95;;
55487;SDS011;41352;53.158;6.788;2022-09-09T02:26:48;13.63;;;8.23;;
55487;SDS011;41352;53.158;6.788;2022-09-09T02:29:19;7.32;;;6.10;;
55487;SDS011;41352;53.158;6.788;2022-09-09T02:31:50;9.15;;;5.82;;
55487;SDS011;41352;53.158;6.788;2022-09-09T02:34:18;9.02;;;6.57;;
55487;SDS011;41352;53.158;6.788;2022-09-09T02:36:47;10.73;;;6.80;;
55487;SDS011;41352;53.158;6.788;2022-09-09T02:39:14;14.57;;;6.57;;
55487;SDS011;41352;53.158;6.788;2022-09-09T02:41:41;7.95;;;5.60;;
55487;SDS011;41352;53.158;6.788;2022-09-09T02:44:14;7.50;;;5.97;;
55487;SDS011;41352;53.158;6.788;2022-09-09T02:52:27;8.32;;;5.22;;
55487;SDS011;41352;53.158;6.788;2022-09-09T02:57:38;8.05;;;4.90;;
55487;SDS011;41352;53.158;6.788;2022-09-09T03:00:06;16.42;;;6.05;;
55487;SDS011;41352;53.158;6.788;2022-09-09T03:02:32;12.90;;;6.20;;
55487;SDS011;41352;53.158;6.788;2022-09-09T03:04:58;8.05;;;5.40;;
55487;SDS011;41352;53.158;6.788;2022-09-09T03:07:24;12.73;;;5.63;;
55487;SDS011;41352;53.158;6.788;2022-09-09T03:09:49;12.88;;;5.90;;
55487;SDS011;41352;53.158;6.788;2022-09-09T03:12:15;8.32;;;5.05;;
55487;SDS011;41352;53.158;6.788;2022-09-09T03:14:41;6.13;;;5.38;;
55487;SDS011;41352;53.158;6.788;2022-09-09T03:17:08;5.47;;;4.30;;
55487;SDS011;41352;53.158;6.788;2022-09-09T03:19:34;5.32;;;4.20;;
55487;SDS011;41352;53.158;6.788;2022-09-09T03:22:01;7.10;;;4.63;;
55487;SDS011;41352;53.158;6.788;2022-09-09T03:24:26;9.27;;;5.60;;
55487;SDS011;41352;53.158;6.788;2022-09-09T03:26:52;7.85;;;4.75;;
55487;SDS011;41352;53.158;6.788;2022-09-09T03:29:18;6.45;;;4.43;;
55487;SDS011;41352;53.158;6.788;2022-09-09T03:31:44;5.97;;;4.65;;
55487;SDS011;41352;53.158;6.788;2022-09-09T03:34:10;10.18;;;4.72;;
55487;SDS011;41352;53.158;6.788;2022-09-09T03:36:36;9.10;;;4.18;;
55487;SDS011;41352;53.158;6.788;2022-09-09T03:39:02;4.95;;;4.15;;
55487;SDS011;41352;53.158;6.788;2022-09-09T03:41:28;8.18;;;4.00;;
55487;SDS011;41352;53.158;6.788;2022-09-09T03:43:55;4.57;;;3.58;;
55487;SDS011;41352;53.158;6.788;2022-09-09T03:46:21;6.57;;;3.47;;
55487;SDS011;41352;53.158;6.788;2022-09-09T03:48:49;9.60;;;3.50;;
55487;SDS011;41352;53.158;6.788;2022-09-09T03:51:15;7.93;;;3.45;;
55487;SDS011;41352;53.158;6.788;2022-09-09T03:53:41;7.38;;;2.63;;
55487;SDS011;41352;53.158;6.788;2022-09-09T03:56:08;6.32;;;4.82;;
55487;SDS011;41352;53.158;6.788;2022-09-09T03:58:34;9.18;;;4.32;;
55487;SDS011;41352;53.158;6.788;2022-09-09T04:01:02;5.20;;;2.90;;
55487;SDS011;41352;53.158;6.788;2022-09-09T04:03:30;4.45;;;2.67;;
55487;SDS011;41352;53.158;6.788;2022-09-09T04:05:57;9.43;;;3.33;;
55487;SDS011;41352;53.158;6.788;2022-09-09T04:08:24;5.75;;;2.92;;
55487;SDS011;41352;53.158;6.788;2022-09-09T04:10:50;7.03;;;3.40;;
55487;SDS011;41352;53.158;6.788;2022-09-09T04:13:17;5.70;;;3.42;;
55487;SDS011;41352;53.158;6.788;2022-09-09T04:15:53;6.47;;;3.58;;
55487;SDS011;41352;53.158;6.788;2022-09-09T04:18:20;5.43;;;2.85;;
55487;SDS011;41352;53.158;6.788;2022-09-09T04:20:47;6.55;;;3.70;;
55487;SDS011;41352;53.158;6.788;2022-09-09T04:23:16;7.45;;;3.85;;
55487;SDS011;41352;53.158;6.788;2022-09-09T04:25:44;3.78;;;2.13;;
55487;SDS011;41352;53.158;6.788;2022-09-09T04:28:12;6.32;;;2.85;;
55487;SDS011;41352;53.158;6.788;2022-09-09T04:30:41;3.58;;;2.15;;
55487;SDS011;41352;53.158;6.788;2022-09-09T04:33:08;4.35;;;2.97;;
55487;SDS011;41352;53.158;6.788;2022-09-09T04:35:37;4.72;;;2.65;;
55487;SDS011;41352;53.158;6.788;2022-09-09T04:38:04;3.53;;;2.53;;
55487;SDS011;41352;53.158;6.788;2022-09-09T04:40:32;5.07;;;2.80;;
55487;SDS011;41352;53.158;6.788;2022-09-09T04:42:58;9.45;;;3.78;;
55487;SDS011;41352;53.158;6.788;2022-09-09T04:45:24;3.13;;;2.42;;
55487;SDS011;41352;53.158;6.788;2022-09-09T04:47:51;7.57;;;3.28;;
55487;SDS011;41352;53.158;6.788;2022-09-09T04:50:17;5.10;;;3.17;;
55487;SDS011;41352;53.158;6.788;2022-09-09T04:52:43;7.10;;;3.72;;
55487;SDS011;41352;53.158;6.788;2022-09-09T04:55:09;4.35;;;3.58;;
55487;SDS011;41352;53.158;6.788;2022-09-09T04:57:35;3.72;;;3.22;;
55487;SDS011;41352;53.158;6.788;2022-09-09T05:00:02;6.18;;;3.78;;
55487;SDS011;41352;53.158;6.788;2022-09-09T05:02:28;6.45;;;2.92;;
55487;SDS011;41352;53.158;6.788;2022-09-09T05:04:55;5.28;;;3.55;;
55487;SDS011;41352;53.158;6.788;2022-09-09T05:07:21;5.53;;;3.67;;
55487;SDS011;41352;53.158;6.788;2022-09-09T05:09:47;6.57;;;4.43;;
55487;SDS011;41352;53.158;6.788;2022-09-09T05:12:14;6.20;;;3.88;;
55487;SDS011;41352;53.158;6.788;2022-09-09T05:14:42;7.70;;;4.68;;
55487;SDS011;41352;53.158;6.788;2022-09-09T05:17:08;6.18;;;4.72;;
55487;SDS011;41352;53.158;6.788;2022-09-09T05:19:34;5.88;;;4.97;;
55487;SDS011;41352;53.158;6.788;2022-09-09T05:22:00;7.25;;;4.97;;
55487;SDS011;41352;53.158;6.788;2022-09-09T05:24:26;8.77;;;5.00;;
55487;SDS011;41352;53.158;6.788;2022-09-09T05:26:52;7.15;;;5.53;;
55487;SDS011;41352;53.158;6.788;2022-09-09T05:29:18;7.75;;;4.82;;
55487;SDS011;41352;53.158;6.788;2022-09-09T05:31:46;6.10;;;5.07;;
55487;SDS011;41352;53.158;6.788;2022-09-09T05:34:12;5.70;;;5.05;;
55487;SDS011;41352;53.158;6.788;2022-09-09T05:36:37;6.85;;;5.38;;
55487;SDS011;41352;53.158;6.788;2022-09-09T05:39:03;7.82;;;5.55;;
55487;SDS011;41352;53.158;6.788;2022-09-09T05:41:29;10.65;;;6.32;;
55487;SDS011;41352;53.158;6.788;2022-09-09T05:43:56;8.70;;;5.60;;
55487;SDS011;41352;53.158;6.788;2022-09-09T05:46:24;6.22;;;4.97;;
55487;SDS011;41352;53.158;6.788;2022-09-09T05:48:50;9.30;;;5.60;;
55487;SDS011;41352;53.158;6.788;2022-09-09T05:51:21;8.30;;;5.72;;
55487;SDS011;41352;53.158;6.788;2022-09-09T05:53:49;7.13;;;5.70;;
55487;SDS011;41352;53.158;6.788;2022-09-09T05:56:20;7.07;;;5.20;;
55487;SDS011;41352;53.158;6.788;2022-09-09T05:58:49;14.13;;;6.10;;
55487;SDS011;41352;53.158;6.788;2022-09-09T06:01:16;8.30;;;5.25;;
55487;SDS011;41352;53.158;6.788;2022-09-09T06:03:44;5.22;;;4.50;;
55487;SDS011;41352;53.158;6.788;2022-09-09T06:06:13;6.28;;;5.05;;
55487;SDS011;41352;53.158;6.788;2022-09-09T06:08:41;6.32;;;4.45;;
55487;SDS011;41352;53.158;6.788;2022-09-09T06:11:16;6.88;;;4.88;;
55487;SDS011;41352;53.158;6.788;2022-09-09T06:13:43;8.23;;;5.10;;
55487;SDS011;41352;53.158;6.788;2022-09-09T06:16:13;6.63;;;4.57;;
55487;SDS011;41352;53.158;6.788;2022-09-09T06:18:40;7.20;;;5.35;;
55487;SDS011;41352;53.158;6.788;2022-09-09T06:21:09;5.35;;;4.43;;
55487;SDS011;41352;53.158;6.788;2022-09-09T06:23:42;6.22;;;4.80;;
55487;SDS011;41352;53.158;6.788;2022-09-09T06:26:13;5.28;;;4.57;;
55487;SDS011;41352;53.158;6.788;2022-09-09T06:28:43;5.65;;;4.72;;
55487;SDS011;41352;53.158;6.788;2022-09-09T06:31:11;6.60;;;5.10;;
55487;SDS011;41352;53.158;6.788;2022-09-09T06:33:38;6.65;;;5.50;;
55487;SDS011;41352;53.158;6.788;2022-09-09T06:36:13;6.32;;;5.40;;
55487;SDS011;41352;53.158;6.788;2022-09-09T06:38:40;7.00;;;5.00;;
55487;SDS011;41352;53.158;6.788;2022-09-09T06:41:08;7.65;;;5.75;;
55487;SDS011;41352;53.158;6.788;2022-09-09T06:43:35;7.90;;;4.68;;
55487;SDS011;41352;53.158;6.788;2022-09-09T06:46:04;10.35;;;5.43;;
55487;SDS011;41352;53.158;6.788;2022-09-09T06:48:33;8.15;;;5.10;;
55487;SDS011;41352;53.158;6.788;2022-09-09T06:53:36;5.57;;;4.50;;
55487;SDS011;41352;53.158;6.788;2022-09-09T06:58:35;8.40;;;5.90;;
55487;SDS011;41352;53.158;6.788;2022-09-09T07:01:02;6.88;;;5.20;;
55487;SDS011;41352;53.158;6.788;2022-09-09T07:03:29;6.43;;;5.07;;
55487;SDS011;41352;53.158;6.788;2022-09-09T07:05:55;8.32;;;5.63;;
55487;SDS011;41352;53.158;6.788;2022-09-09T07:08:21;7.53;;;4.70;;
55487;SDS011;41352;53.158;6.788;2022-09-09T07:10:47;7.30;;;4.75;;
55487;SDS011;41352;53.158;6.788;2022-09-09T07:13:14;4.70;;;4.20;;
55487;SDS011;41352;53.158;6.788;2022-09-09T07:15:40;7.68;;;5.65;;
55487;SDS011;41352;53.158;6.788;2022-09-09T07:18:06;7.57;;;4.80;;
55487;SDS011;41352;53.158;6.788;2022-09-09T07:20:34;6.43;;;4.20;;
55487;SDS011;41352;53.158;6.788;2022-09-09T07:22:59;5.07;;;3.97;;
55487;SDS011;41352;53.158;6.788;2022-09-09T07:25:25;5.03;;;4.30;;
55487;SDS011;41352;53.158;6.788;2022-09-09T07:27:54;4.80;;;4.18;;
55487;SDS011;41352;53.158;6.788;2022-09-09T07:30:19;7.88;;;4.38;;
55487;SDS011;41352;53.158;6.788;2022-09-09T07:32:46;7.10;;;3.85;;
55487;SDS011;41352;53.158;6.788;2022-09-09T07:35:12;4.50;;;4.07;;
55487;SDS011;41352;53.158;6.788;2022-09-09T07:37:37;7.35;;;4.50;;
55487;SDS011;41352;53.158;6.788;2022-09-09T07:40:03;6.78;;;3.85;;
55487;SDS011;41352;53.158;6.788;2022-09-09T07:42:30;5.85;;;4.43;;
55487;SDS011;41352;53.158;6.788;2022-09-09T07:44:56;4.10;;;3.13;;
55487;SDS011;41352;53.158;6.788;2022-09-09T07:47:21;5.45;;;4.07;;
55487;SDS011;41352;53.158;6.788;2022-09-09T07:49:49;4.95;;;3.50;;
55487;SDS011;41352;53.158;6.788;2022-09-09T07:52:15;6.38;;;3.58;;
55487;SDS011;41352;53.158;6.788;2022-09-09T07:54:41;5.70;;;3.92;;
55487;SDS011;41352;53.158;6.788;2022-09-09T07:57:07;4.63;;;3.50;;
55487;SDS011;41352;53.158;6.788;2022-09-09T07:59:33;4.70;;;3.10;;
55487;SDS011;41352;53.158;6.788;2022-09-09T08:01:58;5.78;;;3.20;;
55487;SDS011;41352;53.158;6.788;2022-09-09T08:04:25;3.83;;;2.97;;
55487;SDS011;41352;53.158;6.788;2022-09-09T08:09:18;5.85;;;2.95;;
55487;SDS011;41352;53.158;6.788;2022-09-09T08:11:44;4.18;;;2.80;;
55487;SDS011;41352;53.158;6.788;2022-09-09T08:14:10;3.17;;;2.88;;
55487;SDS011;41352;53.158;6.788;2022-09-09T08:16:38;7.38;;;4.20;;
55487;SDS011;41352;53.158;6.788;2022-09-09T08:19:06;8.63;;;2.97;;
55487;SDS011;41352;53.158;6.788;2022-09-09T08:21:32;3.80;;;2.30;;
55487;SDS011;41352;53.158;6.788;2022-09-09T08:23:59;3.10;;;2.35;;
55487;SDS011;41352;53.158;6.788;2022-09-09T08:26:27;4.97;;;3.45;;
55487;SDS011;41352;53.158;6.788;2022-09-09T08:28:55;5.82;;;2.78;;
55487;SDS011;41352;53.158;6.788;2022-09-09T08:31:23;3.55;;;2.55;;
55487;SDS011;41352;53.158;6.788;2022-09-09T08:33:49;3.47;;;2.28;;
55487;SDS011;41352;53.158;6.788;2022-09-09T08:36:19;4.07;;;2.40;;
55487;SDS011;41352;53.158;6.788;2022-09-09T08:38:50;5.03;;;2.55;;
55487;SDS011;41352;53.158;6.788;2022-09-09T08:54:56;5.65;;;2.95;;
55487;SDS011;41352;53.158;6.788;2022-09-09T08:57:28;4.43;;;2.65;;
55487;SDS011;41352;53.158;6.788;2022-09-09T08:59:57;5.25;;;2.78;;
55487;SDS011;41352;53.158;6.788;2022-09-09T09:02:25;4.50;;;2.58;;
55487;SDS011;41352;53.158;6.788;2022-09-09T09:07:35;3.58;;;2.58;;
55487;SDS011;41352;53.158;6.788;2022-09-09T09:12:43;6.10;;;2.95;;
55487;SDS011;41352;53.158;6.788;2022-09-09T09:15:23;2.60;;;2.30;;
55487;SDS011;41352;53.158;6.788;2022-09-09T09:17:50;2.28;;;2.08;;
55487;SDS011;41352;53.158;6.788;2022-09-09T09:20:16;3.75;;;2.08;;
55487;SDS011;41352;53.158;6.788;2022-09-09T09:22:59;4.15;;;2.20;;
55487;SDS011;41352;53.158;6.788;2022-09-09T09:25:34;5.00;;;2.00;;
55487;SDS011;41352;53.158;6.788;2022-09-09T09:28:17;2.90;;;1.58;;
55487;SDS011;41352;53.158;6.788;2022-09-09T09:33:34;4.78;;;1.80;;
55487;SDS011;41352;53.158;6.788;2022-09-09T09:36:15;3.47;;;2.67;;
55487;SDS011;41352;53.158;6.788;2022-09-09T09:38:57;5.72;;;1.70;;
55487;SDS011;41352;53.158;6.788;2022-09-09T09:41:32;7.70;;;2.40;;
55487;SDS011;41352;53.158;6.788;2022-09-09T09:44:02;4.88;;;2.25;;
55487;SDS011;41352;53.158;6.788;2022-09-09T09:46:29;4.25;;;1.85;;
55487;SDS011;41352;53.158;6.788;2022-09-09T09:48:59;8.40;;;2.05;;
55487;SDS011;41352;53.158;6.788;2022-09-09T09:51:26;6.25;;;2.47;;
55487;SDS011;41352;53.158;6.788;2022-09-09T09:53:53;9.43;;;2.40;;
55487;SDS011;41352;53.158;6.788;2022-09-09T09:56:26;9.98;;;4.13;;
55487;SDS011;41352;53.158;6.788;2022-09-09T09:58:57;5.60;;;2.05;;
55487;SDS011;41352;53.158;6.788;2022-09-09T10:01:24;3.13;;;2.13;;
55487;SDS011;41352;53.158;6.788;2022-09-09T10:04:02;4.70;;;2.28;;
55487;SDS011;41352;53.158;6.788;2022-09-09T10:06:41;7.18;;;2.60;;
55487;SDS011;41352;53.158;6.788;2022-09-09T10:23:02;4.15;;;1.42;;
55487;SDS011;41352;53.158;6.788;2022-09-09T10:36:43;5.20;;;1.90;;
55487;SDS011;41352;53.158;6.788;2022-09-09T10:42:15;4.63;;;1.63;;
55487;SDS011;41352;53.158;6.788;2022-09-09T10:44:53;5.22;;;1.48;;
55487;SDS011;41352;53.158;6.788;2022-09-09T10:47:34;8.50;;;1.98;;
55487;SDS011;41352;53.158;6.788;2022-09-09T10:55:26;7.53;;;1.48;;
55487;SDS011;41352;53.158;6.788;2022-09-09T10:58:09;7.28;;;1.67;;
55487;SDS011;41352;53.158;6.788;2022-09-09T11:01:00;7.10;;;1.77;;
55487;SDS011;41352;53.158;6.788;2022-09-09T11:03:34;6.40;;;1.80;;
55487;SDS011;41352;53.158;6.788;2022-09-09T11:06:06;5.28;;;1.63;;
55487;SDS011;41352;53.158;6.788;2022-09-09T11:08:41;4.95;;;2.03;;
55487;SDS011;41352;53.158;6.788;2022-09-09T11:13:49;7.47;;;1.42;;
55487;SDS011;41352;53.158;6.788;2022-09-09T11:16:34;2.13;;;0.98;;
55487;SDS011;41352;53.158;6.788;2022-09-09T11:19:11;2.33;;;0.98;;
55487;SDS011;41352;53.158;6.788;2022-09-09T11:21:59;2.53;;;1.35;;
55487;SDS011;41352;53.158;6.788;2022-09-09T11:24:37;7.50;;;2.42;;
55487;SDS011;41352;53.158;6.788;2022-09-09T11:29:45;3.97;;;1.73;;
55487;SDS011;41352;53.158;6.788;2022-09-09T11:38:27;7.22;;;1.40;;
55487;SDS011;41352;53.158;6.788;2022-09-09T11:41:03;2.08;;;1.00;;
55487;SDS011;41352;53.158;6.788;2022-09-09T11:43:40;5.72;;;1.25;;
55487;SDS011;41352;53.158;6.788;2022-09-09T11:46:09;3.08;;;1.13;;
55487;SDS011;41352;53.158;6.788;2022-09-09T11:48:39;4.70;;;1.10;;
55487;SDS011;41352;53.158;6.788;2022-09-09T11:51:13;3.83;;;1.25;;
55487;SDS011;41352;53.158;6.788;2022-09-09T11:53:56;3.15;;;1.08;;
55487;SDS011;41352;53.158;6.788;2022-09-09T11:56:27;6.25;;;1.35;;
55487;SDS011;41352;53.158;6.788;2022-09-09T12:01:33;6.25;;;1.02;;
55487;SDS011;41352;53.158;6.788;2022-09-09T12:06:49;1.85;;;0.70;;
55487;SDS011;41352;53.158;6.788;2022-09-09T12:10:05;1.73;;;0.68;;
55487;SDS011;41352;53.158;6.788;2022-09-09T12:19:40;7.57;;;1.65;;
55487;SDS011;41352;53.158;6.788;2022-09-09T12:22:07;3.15;;;1.15;;
55487;SDS011;41352;53.158;6.788;2022-09-09T12:30:41;4.93;;;1.75;;
55487;SDS011;41352;53.158;6.788;2022-09-09T12:33:33;7.18;;;1.52;;
55487;SDS011;41352;53.158;6.788;2022-09-09T12:36:00;3.78;;;1.98;;
55487;SDS011;41352;53.158;6.788;2022-09-09T12:40:59;2.72;;;1.10;;
55487;SDS011;41352;53.158;6.788;2022-09-09T12:43:26;2.95;;;1.15;;
55487;SDS011;41352;53.158;6.788;2022-09-09T12:46:00;3.35;;;0.85;;
55487;SDS011;41352;53.158;6.788;2022-09-09T12:48:38;7.70;;;1.42;;
55487;SDS011;41352;53.158;6.788;2022-09-09T12:51:15;3.53;;;1.65;;
55487;SDS011;41352;53.158;6.788;2022-09-09T12:53:53;3.33;;;1.27;;
55487;SDS011;41352;53.158;6.788;2022-09-09T12:56:20;5.75;;;1.08;;
55487;SDS011;41352;53.158;6.788;2022-09-09T12:58:49;2.22;;;0.82;;
55487;SDS011;41352;53.158;6.788;2022-09-09T13:01:34;2.60;;;1.20;;
55487;SDS011;41352;53.158;6.788;2022-09-09T13:04:00;5.80;;;0.98;;
55487;SDS011;41352;53.158;6.788;2022-09-09T13:06:30;5.03;;;1.00;;
55487;SDS011;41352;53.158;6.788;2022-09-09T13:08:58;4.07;;;1.98;;
55487;SDS011;41352;53.158;6.788;2022-09-09T13:11:35;2.83;;;1.20;;
55487;SDS011;41352;53.158;6.788;2022-09-09T13:14:12;3.90;;;0.93;;
55487;SDS011;41352;53.158;6.788;2022-09-09T13:16:53;3.97;;;1.13;;
55487;SDS011;41352;53.158;6.788;2022-09-09T13:19:23;3.03;;;1.00;;
55487;SDS011;41352;53.158;6.788;2022-09-09T13:21:53;6.28;;;1.27;;
55487;SDS011;41352;53.158;6.788;2022-09-09T13:24:32;4.05;;;0.82;;
55487;SDS011;41352;53.158;6.788;2022-09-09T13:27:00;1.35;;;0.70;;
55487;SDS011;41352;53.158;6.788;2022-09-09T13:29:52;6.80;;;1.65;;
55487;SDS011;41352;53.158;6.788;2022-09-09T13:32:20;2.33;;;0.77;;
55487;SDS011;41352;53.158;6.788;2022-09-09T13:34:50;2.45;;;0.80;;
55487;SDS011;41352;53.158;6.788;2022-09-09T13:39:55;6.13;;;1.70;;
55487;SDS011;41352;53.158;6.788;2022-09-09T13:42:28;3.05;;;0.90;;
55487;SDS011;41352;53.158;6.788;2022-09-09T13:44:56;1.73;;;1.17;;
55487;SDS011;41352;53.158;6.788;2022-09-09T13:47:35;1.38;;;0.82;;
55487;SDS011;41352;53.158;6.788;2022-09-09T13:52:49;5.15;;;1.20;;
55487;SDS011;41352;53.158;6.788;2022-09-09T13:55:16;5.07;;;1.35;;
55487;SDS011;41352;53.158;6.788;2022-09-09T13:57:53;3.38;;;1.00;;
55487;SDS011;41352;53.158;6.788;2022-09-09T14:00:24;2.90;;;0.82;;
55487;SDS011;41352;53.158;6.788;2022-09-09T14:02:50;2.53;;;0.47;;
55487;SDS011;41352;53.158;6.788;2022-09-09T14:05:16;3.25;;;0.82;;
55487;SDS011;41352;53.158;6.788;2022-09-09T14:07:43;2.70;;;0.63;;
55487;SDS011;41352;53.158;6.788;2022-09-09T14:10:10;2.20;;;0.52;;
55487;SDS011;41352;53.158;6.788;2022-09-09T14:12:37;2.22;;;0.50;;
55487;SDS011;41352;53.158;6.788;2022-09-09T14:15:03;1.73;;;0.80;;
55487;SDS011;41352;53.158;6.788;2022-09-09T14:17:30;4.05;;;1.05;;
55487;SDS011;41352;53.158;6.788;2022-09-09T14:19:56;2.38;;;0.70;;
55487;SDS011;41352;53.158;6.788;2022-09-09T14:22:22;7.78;;;1.58;;
55487;SDS011;41352;53.158;6.788;2022-09-09T14:24:49;2.65;;;1.20;;
55487;SDS011;41352;53.158;6.788;2022-09-09T14:27:15;2.17;;;0.80;;
55487;SDS011;41352;53.158;6.788;2022-09-09T14:29:43;1.90;;;0.73;;
55487;SDS011;41352;53.158;6.788;2022-09-09T14:32:10;2.90;;;0.73;;
55487;SDS011;41352;53.158;6.788;2022-09-09T14:34:36;3.05;;;0.75;;
55487;SDS011;41352;53.158;6.788;2022-09-09T14:37:02;3.97;;;0.75;;
55487;SDS011;41352;53.158;6.788;2022-09-09T14:39:28;5.18;;;1.15;;
55487;SDS011;41352;53.158;6.788;2022-09-09T14:41:53;2.17;;;0.90;;
55487;SDS011;41352;53.158;6.788;2022-09-09T14:44:20;5.53;;;1.65;;
55487;SDS011;41352;53.158;6.788;2022-09-09T14:46:45;1.88;;;0.80;;
55487;SDS011;41352;53.158;6.788;2022-09-09T14:49:11;10.48;;;3.17;;
55487;SDS011;41352;53.158;6.788;2022-09-09T14:51:38;16.00;;;3.30;;
55487;SDS011;41352;53.158;6.788;2022-09-09T14:54:03;3.92;;;1.50;;
55487;SDS011;41352;53.158;6.788;2022-09-09T14:56:31;3.90;;;1.13;;
55487;SDS011;41352;53.158;6.788;2022-09-09T14:58:59;4.97;;;1.10;;
55487;SDS011;41352;53.158;6.788;2022-09-09T15:01:26;3.53;;;1.60;;
55487;SDS011;41352;53.158;6.788;2022-09-09T15:03:53;3.67;;;1.30;;
55487;SDS011;41352;53.158;6.788;2022-09-09T15:06:21;2.25;;;0.95;;
55487;SDS011;41352;53.158;6.788;2022-09-09T15:08:50;3.42;;;1.20;;
55487;SDS011;41352;53.158;6.788;2022-09-09T15:11:17;3.97;;;2.20;;
55487;SDS011;41352;53.158;6.788;2022-09-09T15:13:43;3.88;;;1.10;;
55487;SDS011;41352;53.158;6.788;2022-09-09T15:16:13;1.77;;;1.17;;
55487;SDS011;41352;53.158;6.788;2022-09-09T15:18:41;3.53;;;1.63;;
55487;SDS011;41352;53.158;6.788;2022-09-09T15:21:11;3.58;;;0.52;;
55487;SDS011;41352;53.158;6.788;2022-09-09T15:23:39;0.30;;;0.30;;
55487;SDS011;41352;53.158;6.788;2022-09-09T15:26:05;0.63;;;0.30;;
55487;SDS011;41352;53.158;6.788;2022-09-09T15:28:32;0.52;;;0.30;;
55487;SDS011;41352;53.158;6.788;2022-09-09T15:31:09;1.33;;;0.32;;
55487;SDS011;41352;53.158;6.788;2022-09-09T15:34:03;1.20;;;0.52;;
55487;SDS011;41352;53.158;6.788;2022-09-09T15:38:58;0.47;;;0.30;;
55487;SDS011;41352;53.158;6.788;2022-09-09T15:41:25;0.45;;;0.22;;
55487;SDS011;41352;53.158;6.788;2022-09-09T15:43:52;0.28;;;0.20;;
55487;SDS011;41352;53.158;6.788;2022-09-09T15:49:14;2.50;;;0.20;;
55487;SDS011;41352;53.158;6.788;2022-09-09T15:51:44;1.50;;;0.50;;
55487;SDS011;41352;53.158;6.788;2022-09-09T15:54:15;0.60;;;0.35;;
55487;SDS011;41352;53.158;6.788;2022-09-09T15:56:50;0.70;;;0.30;;
55487;SDS011;41352;53.158;6.788;2022-09-09T15:59:24;0.43;;;0.32;;
55487;SDS011;41352;53.158;6.788;2022-09-09T16:01:52;1.23;;;0.68;;
55487;SDS011;41352;53.158;6.788;2022-09-09T16:04:20;1.25;;;0.43;;
55487;SDS011;41352;53.158;6.788;2022-09-09T16:06:56;0.68;;;0.30;;
55487;SDS011;41352;53.158;6.788;2022-09-09T16:11:49;4.80;;;0.98;;
55487;SDS011;41352;53.158;6.788;2022-09-09T16:14:16;2.70;;;0.73;;
55487;SDS011;41352;53.158;6.788;2022-09-09T16:16:45;8.13;;;0.80;;
55487;SDS011;41352;53.158;6.788;2022-09-09T16:19:11;5.05;;;0.77;;
55487;SDS011;41352;53.158;6.788;2022-09-09T16:21:47;1.67;;;0.70;;
55487;SDS011;41352;53.158;6.788;2022-09-09T16:24:18;1.88;;;0.80;;
55487;SDS011;41352;53.158;6.788;2022-09-09T16:26:46;2.88;;;0.55;;
55487;SDS011;41352;53.158;6.788;2022-09-09T16:29:14;2.10;;;0.50;;
55487;SDS011;41352;53.158;6.788;2022-09-09T16:31:41;0.88;;;0.55;;
55487;SDS011;41352;53.158;6.788;2022-09-09T16:34:08;1.15;;;0.63;;
55487;SDS011;41352;53.158;6.788;2022-09-09T16:36:35;1.55;;;0.70;;
55487;SDS011;41352;53.158;6.788;2022-09-09T16:39:05;1.65;;;0.60;;
55487;SDS011;41352;53.158;6.788;2022-09-09T16:41:34;0.93;;;0.65;;
55487;SDS011;41352;53.158;6.788;2022-09-09T16:44:00;2.35;;;0.70;;
55487;SDS011;41352;53.158;6.788;2022-09-09T16:46:31;2.90;;;0.80;;
55487;SDS011;41352;53.158;6.788;2022-09-09T16:48:59;1.75;;;0.80;;
55487;SDS011;41352;53.158;6.788;2022-09-09T16:51:27;3.08;;;1.10;;
55487;SDS011;41352;53.158;6.788;2022-09-09T16:53:55;4.57;;;1.02;;
55487;SDS011;41352;53.158;6.788;2022-09-09T16:56:24;1.95;;;0.60;;
55487;SDS011;41352;53.158;6.788;2022-09-09T16:58:58;0.88;;;0.70;;
55487;SDS011;41352;53.158;6.788;2022-09-09T17:01:27;4.03;;;0.75;;
55487;SDS011;41352;53.158;6.788;2022-09-09T17:03:55;3.70;;;1.05;;
55487;SDS011;41352;53.158;6.788;2022-09-09T17:06:22;1.00;;;0.70;;
55487;SDS011;41352;53.158;6.788;2022-09-09T17:08:53;2.60;;;1.08;;
55487;SDS011;41352;53.158;6.788;2022-09-09T17:11:23;1.85;;;1.00;;
55487;SDS011;41352;53.158;6.788;2022-09-09T17:13:49;0.90;;;0.88;;
55487;SDS011;41352;53.158;6.788;2022-09-09T17:16:16;2.58;;;1.10;;
55487;SDS011;41352;53.158;6.788;2022-09-09T17:18:45;2.88;;;0.95;;
55487;SDS011;41352;53.158;6.788;2022-09-09T17:21:11;4.50;;;1.23;;
55487;SDS011;41352;53.158;6.788;2022-09-09T17:23:39;2.67;;;1.30;;
55487;SDS011;41352;53.158;6.788;2022-09-09T17:26:07;3.97;;;1.05;;
55487;SDS011;41352;53.158;6.788;2022-09-09T17:28:38;1.45;;;1.10;;
55487;SDS011;41352;53.158;6.788;2022-09-09T17:31:05;1.33;;;0.98;;
55487;SDS011;41352;53.158;6.788;2022-09-09T17:33:35;1.80;;;1.05;;
55487;SDS011;41352;53.158;6.788;2022-09-09T17:36:07;2.92;;;1.17;;
55487;SDS011;41352;53.158;6.788;2022-09-09T17:38:34;4.10;;;1.15;;
55487;SDS011;41352;53.158;6.788;2022-09-09T17:41:01;3.80;;;1.45;;